Time;durP1;ratioP1;P1;durP2;ratioP2;P2;SDS_P1;SDS_P2;PMS_P1;PMS_P2;Temp;Humidity;BMP_temperature;BMP_pressure;BME280_temperature;BME280_humidity;BME280_pressure;Samples;Min_cycle;Max_cycle;Signal;HPM_P1;HPM_P2
2023/03/11 00:01:19;;;;;;;5.53;1.55;;;;;;;14.36;38.07;98868.97;5062725;28;20036;-83
2023/03/11 00:04:14;;;;;;;3.28;0.88;;;;;;;14.31;38.01;98868.53;5054747;28;21664;-82
2023/03/11 00:07:09;;;;;;;2.03;1.10;;;;;;;14.44;38.23;98870.56;5048356;28;20044;-82
2023/03/11 00:10:03;;;;;;;1.38;0.82;;;;;;;14.48;38.52;98882.28;5064560;28;20281;-83
2023/03/11 00:12:53;;;;;;;2.93;0.57;;;;;;;14.44;38.34;98873.28;5054310;28;20040;-82
2023/03/11 00:15:47;;;;;;;6.80;0.88;;;;;;;14.42;38.34;98872.91;5073142;28;20043;-82
2023/03/11 00:18:41;;;;;;;1.52;0.70;;;;;;;14.42;38.78;98867.44;5059931;28;20116;-82
2023/03/11 00:21:36;;;;;;;3.00;0.70;;;;;;;14.33;38.12;98866.97;5043111;28;20044;-83
2023/03/11 00:24:31;;;;;;;1.13;0.60;;;;;;;14.29;38.18;98871.66;5042421;28;20044;-83
2023/03/11 00:27:23;;;;;;;1.90;0.80;;;;;;;14.14;38.46;98872.75;5039606;28;20520;-82
2023/03/11 00:30:20;;;;;;;5.53;0.70;;;;;;;14.30;39.17;98875.94;5051426;28;20040;-83
2023/03/11 00:33:13;;;;;;;4.43;0.90;;;;;;;14.27;39.21;98857.59;5055038;28;20040;-84
2023/03/11 00:36:05;;;;;;;6.55;0.80;;;;;;;14.19;39.29;98850.53;5054758;28;20051;-83
2023/03/11 00:39:00;;;;;;;2.90;0.87;;;;;;;14.22;39.58;98847.00;5070737;28;20047;-83
2023/03/11 00:41:55;;;;;;;1.88;0.70;;;;;;;14.20;39.30;98857.56;5066104;22;20048;-81
2023/03/11 00:44:50;;;;;;;0.87;0.77;;;;;;;14.15;39.45;98855.19;5043257;28;20056;-81
2023/03/11 00:47:44;;;;;;;4.15;0.70;;;;;;;14.20;39.45;98848.56;5028949;28;20032;-80
2023/03/11 00:50:39;;;;;;;1.90;0.63;;;;;;;14.10;39.43;98839.94;5031407;28;20048;-81
2023/03/11 00:53:34;;;;;;;5.32;0.55;;;;;;;13.96;39.07;98833.63;5030925;28;20271;-81
2023/03/11 00:56:30;;;;;;;2.17;0.60;;;;;;;13.98;39.73;98818.41;5029674;28;20041;-79
2023/03/11 00:59:22;;;;;;;4.03;0.77;;;;;;;14.03;39.65;98828.19;5021870;28;20036;-80
2023/03/11 01:02:17;;;;;;;1.50;0.98;;;;;;;13.95;39.75;98827.38;5023940;28;20306;-82
2023/03/11 01:05:10;;;;;;;8.13;0.65;;;;;;;13.96;40.12;98817.25;5028562;28;20048;-81
2023/03/11 01:08:05;;;;;;;2.58;0.60;;;;;;;13.88;39.51;98818.38;5025638;28;20036;-79
2023/03/11 01:11:00;;;;;;;0.60;0.47;;;;;;;13.83;39.34;98816.00;5030793;28;20048;-80
2023/03/11 01:13:52;;;;;;;0.82;0.50;;;;;;;13.79;39.75;98809.75;5044235;28;20040;-79
2023/03/11 01:16:46;;;;;;;4.35;1.23;;;;;;;13.80;39.30;98803.13;5045874;28;20048;-82
2023/03/11 01:19:40;;;;;;;13.83;0.73;;;;;;;13.70;39.66;98791.75;5027925;28;20044;-81
2023/03/11 01:22:35;;;;;;;3.92;0.70;;;;;;;13.62;39.80;98792.88;5045230;28;20409;-81
2023/03/11 01:25:30;;;;;;;1.50;0.30;;;;;;;13.65;39.82;98796.81;5027517;28;20536;-82
2023/03/11 01:28:24;;;;;;;0.60;0.50;;;;;;;13.71;39.52;98789.81;5023580;28;20278;-81
2023/03/11 01:31:19;;;;;;;1.35;0.40;;;;;;;13.58;39.02;98772.94;5033983;28;20283;-82
2023/03/11 01:34:12;;;;;;;;;;;;;;;13.59;39.85;98776.47;5036654;28;20040;-82
2023/03/11 01:37:04;;;;;;;1.45;0.70;;;;;;;13.54;39.55;98765.91;5025798;28;19925;-80
2023/03/11 01:39:58;;;;;;;5.67;0.37;;;;;;;13.47;40.19;98760.41;5025790;28;20521;-81
2023/03/11 01:42:50;;;;;;;2.85;1.02;;;;;;;13.40;40.63;98744.00;5017842;28;20045;-81
2023/03/11 01:45:46;;;;;;;7.20;0.63;;;;;;;13.41;40.48;98745.56;5032649;28;20501;-81
2023/03/11 01:48:43;;;;;;;2.85;0.50;;;;;;;13.41;40.08;98754.53;5028150;28;20036;-83
2023/03/11 01:51:45;;;;;;;6.75;0.55;;;;;;;13.39;40.51;98756.88;5031698;28;20055;-81
2023/03/11 01:54:42;;;;;;;3.90;0.60;;;;;;;13.30;41.50;98772.81;5045431;28;20048;-81
2023/03/11 01:57:37;;;;;;;3.72;0.50;;;;;;;13.35;40.33;98769.72;5054361;28;20422;-82
2023/03/11 02:00:32;;;;;;;0.63;0.55;;;;;;;13.37;40.90;98764.63;5035036;28;20055;-81
2023/03/11 02:03:29;;;;;;;1.33;0.40;;;;;;;13.35;40.50;98750.59;5041811;28;20528;-82
2023/03/11 02:06:24;;;;;;;1.25;0.55;;;;;;;13.43;41.21;98767.78;5023037;28;20044;-81
2023/03/11 02:09:19;;;;;;;2.90;0.90;;;;;;;13.49;40.31;98772.53;5034883;28;20045;-81
2023/03/11 02:12:15;;;;;;;3.23;0.83;;;;;;;13.24;40.63;98760.69;5033143;28;20520;-82
2023/03/11 02:15:11;;;;;;;1.40;0.82;;;;;;;13.40;41.19;98771.31;5036787;28;20583;-83
2023/03/11 02:18:09;;;;;;;2.22;0.65;;;;;;;13.23;40.86;98734.53;5036591;28;20534;-82
2023/03/11 02:21:20;;;;;;;1.00;0.45;;;;;;;13.19;40.67;98731.78;5051666;28;20520;-81
2023/03/11 02:24:22;;;;;;;1.63;0.70;;;;;;;13.20;40.71;98727.13;5039869;28;20116;-81
2023/03/11 02:27:18;;;;;;;2.33;0.80;;;;;;;13.16;40.72;98727.09;5037076;28;20418;-82
2023/03/11 02:30:12;;;;;;;4.50;0.77;;;;;;;13.17;40.45;98745.03;5040130;28;20044;-81
2023/03/11 02:33:08;;;;;;;4.83;0.80;;;;;;;13.20;40.39;98748.97;5037935;28;20044;-82
2023/03/11 02:36:03;;;;;;;1.73;0.63;;;;;;;13.12;40.76;98745.38;5040159;28;20290;-81
2023/03/11 02:38:55;;;;;;;1.93;0.60;;;;;;;13.11;40.88;98756.63;5027449;28;20048;-82
2023/03/11 02:41:50;;;;;;;3.42;0.70;;;;;;;13.10;40.63;98741.47;5021846;28;20048;-80
2023/03/11 02:44:47;;;;;;;1.60;0.43;;;;;;;13.03;41.50;98734.00;5024557;28;20049;-79
2023/03/11 02:47:42;;;;;;;0.80;0.55;;;;;;;12.97;41.82;98729.25;5022145;28;20048;-80
2023/03/11 02:50:38;;;;;;;1.65;0.43;;;;;;;12.97;41.88;98719.13;5025036;28;20060;-81
2023/03/11 02:53:32;;;;;;;0.85;0.47;;;;;;;13.00;41.78;98714.88;5023218;28;20044;-79
2023/03/11 02:56:27;;;;;;;1.20;0.60;;;;;;;12.95;42.26;98720.69;5041144;28;20048;-80
2023/03/11 02:59:21;;;;;;;1.63;0.50;;;;;;;12.94;42.45;98722.63;5053052;28;20048;-82
2023/03/11 03:02:16;;;;;;;2.90;0.60;;;;;;;12.88;42.31;98720.63;5040806;28;20052;-79
2023/03/11 03:05:11;;;;;;;3.77;1.10;;;;;;;12.82;42.42;98715.53;5030781;28;20048;-80
2023/03/11 03:08:06;;;;;;;4.22;0.50;;;;;;;12.79;42.59;98712.78;5037496;28;20041;-79
2023/03/11 03:10:58;;;;;;;0.83;0.50;;;;;;;12.73;43.00;98711.56;5030537;28;20457;-80
2023/03/11 03:13:53;;;;;;;2.08;0.95;;;;;;;12.78;43.23;98714.72;5035120;28;20036;-80
2023/03/11 03:16:49;;;;;;;2.35;0.55;;;;;;;12.69;43.18;98711.56;5034450;28;20044;-79
2023/03/11 03:19:44;;;;;;;6.57;0.90;;;;;;;12.76;42.78;98713.53;5040717;28;20055;-79
2023/03/11 03:22:39;;;;;;;1.20;0.70;;;;;;;12.61;43.48;98720.81;5032897;28;21261;-81
2023/03/11 03:25:33;;;;;;;1.57;0.70;;;;;;;12.60;44.06;98735.59;5031332;28;20708;-81
2023/03/11 03:28:27;;;;;;;1.98;0.50;;;;;;;12.60;43.25;98735.59;5033139;28;20040;-80
2023/03/11 03:31:22;;;;;;;2.45;0.82;;;;;;;12.66;43.23;98728.66;5029365;28;20048;-81
2023/03/11 03:34:16;;;;;;;1.13;0.50;;;;;;;12.61;43.02;98729.00;5029717;28;20414;-81
2023/03/11 03:37:11;;;;;;;1.20;0.60;;;;;;;12.64;42.50;98716.56;5030374;28;20048;-81
2023/03/11 03:40:06;;;;;;;0.80;0.50;;;;;;;12.66;42.89;98711.50;5032194;28;20048;-82
2023/03/11 03:43:01;;;;;;;1.67;0.82;;;;;;;12.67;42.73;98697.50;5023808;28;20060;-82
2023/03/11 03:46:04;;;;;;;1.38;0.40;;;;;;;12.68;42.73;98711.91;5025672;28;20044;-81
2023/03/11 03:49:00;;;;;;;6.97;1.02;;;;;;;12.60;42.76;98713.78;5029390;28;20088;-82
2023/03/11 03:51:55;;;;;;;2.67;0.70;;;;;;;12.65;42.64;98718.09;5031971;28;20414;-82
2023/03/11 03:54:55;;;;;;;3.42;1.58;;;;;;;12.57;42.91;98714.56;5041283;28;20036;-81
2023/03/11 03:57:49;;;;;;;1.58;0.70;;;;;;;12.58;42.88;98712.63;5029996;28;20406;-83
2023/03/11 04:00:45;;;;;;;6.05;0.50;;;;;;;12.63;42.92;98715.78;5032366;28;20418;-82
2023/03/11 04:03:39;;;;;;;1.30;0.50;;;;;;;12.74;43.01;98730.28;5034537;28;20410;-80
2023/03/11 04:06:36;;;;;;;1.17;0.70;;;;;;;12.68;42.92;98718.16;5036981;28;20278;-81
2023/03/11 04:09:28;;;;;;;2.78;0.63;;;;;;;12.65;43.36;98718.09;5040906;28;20039;-81
2023/03/11 04:12:23;;;;;;;3.95;1.08;;;;;;;12.61;43.10;98739.91;5026903;28;20047;-80
2023/03/11 04:15:18;;;;;;;3.50;0.70;;;;;;;12.46;43.71;98731.97;5029609;28;20036;-81
2023/03/11 04:18:11;;;;;;;0.40;0.40;;;;;;;12.41;44.13;98731.16;5033809;28;20311;-81
2023/03/11 04:21:08;;;;;;;2.10;0.90;;;;;;;12.39;44.04;98754.53;5049726;28;20530;-81
2023/03/11 04:24:02;;;;;;;1.80;0.88;;;;;;;12.34;44.43;98763.03;5041191;28;20410;-83
2023/03/11 04:26:59;;;;;;;0.98;0.50;;;;;;;12.35;44.12;98770.03;5036455;28;20052;-82
2023/03/11 04:29:53;;;;;;;2.58;0.55;;;;;;;12.37;44.29;98775.91;5029842;28;20048;-80
2023/03/11 04:32:45;;;;;;;3.93;0.67;;;;;;;12.34;44.32;98780.16;5023652;28;20036;-81
2023/03/11 04:35:41;;;;;;;1.10;0.38;;;;;;;12.29;44.23;98782.44;5030789;28;20044;-81
2023/03/11 04:38:36;;;;;;;3.08;0.90;;;;;;;12.29;44.22;98782.44;5029901;28;20036;-81
2023/03/11 04:41:31;;;;;;;1.95;0.60;;;;;;;12.29;44.35;98787.91;5035157;28;20525;-81
2023/03/11 04:44:26;;;;;;;1.08;0.60;;;;;;;12.29;44.31;98793.34;5029009;28;20040;-79
2023/03/11 04:47:21;;;;;;;2.70;1.07;;;;;;;12.35;44.13;98803.53;5031820;28;20036;-80
2023/03/11 04:50:16;;;;;;;1.17;0.52;;;;;;;12.36;44.35;98818.72;5033462;28;20279;-81
2023/03/11 04:53:10;;;;;;;36.43;2.43;;;;;;;12.43;44.20;98813.38;5034817;28;20520;-81
2023/03/11 04:56:05;;;;;;;9.95;1.38;;;;;;;12.48;44.27;98784.97;5036826;28;20049;-81
2023/03/11 04:59:01;;;;;;;1.17;0.80;;;;;;;12.51;43.82;98781.50;5035356;28;20044;-80
2023/03/11 05:01:56;;;;;;;1.13;0.60;;;;;;;12.50;44.02;98766.28;5030077;28;20051;-85
2023/03/11 05:04:51;;;;;;;2.47;0.85;;;;;;;12.47;45.33;98752.63;5055912;28;20053;-85
2023/03/11 05:07:41;;;;;;;;;;;;;;;12.54;44.46;98767.13;5044829;28;20032;-84
2023/03/11 05:10:36;;;;;;;2.28;1.02;;;;;;;12.59;44.07;98744.97;5033402;28;19920;-83
2023/03/11 05:13:28;;;;;;;;;;;;;;;12.52;44.94;98742.16;5043122;28;20048;-82
2023/03/11 05:16:23;;;;;;;3.30;0.98;;;;;;;12.50;45.07;98744.47;5030802;28;20301;-79
2023/03/11 05:19:33;;;;;;;2.60;1.40;;;;;;;12.67;45.78;98753.97;5032565;28;20060;-80
2023/03/11 05:22:28;;;;;;;2.45;0.95;;;;;;;12.65;45.11;98746.16;5051029;28;20445;-81
2023/03/11 05:25:22;;;;;;;1.80;1.02;;;;;;;12.64;44.91;98744.63;5032104;28;20063;-83
2023/03/11 05:28:17;;;;;;;2.80;1.00;;;;;;;12.61;44.90;98737.19;5026486;28;20044;-81
2023/03/11 05:31:11;;;;;;;1.73;0.80;;;;;;;12.66;44.39;98742.28;5032975;28;20052;-83
2023/03/11 05:34:06;;;;;;;2.15;0.85;;;;;;;12.66;44.13;98764.09;5032272;28;20044;-81
2023/03/11 05:37:01;;;;;;;3.03;0.90;;;;;;;12.65;43.97;98765.25;5023144;28;20108;-83
2023/03/11 05:39:56;;;;;;;2.33;1.48;;;;;;;12.64;44.22;98782.00;5031125;28;20803;-83
2023/03/11 05:42:50;;;;;;;3.37;1.30;;;;;;;12.61;44.19;98815.47;5042666;28;20067;-84
2023/03/11 05:45:45;;;;;;;5.00;2.30;;;;;;;12.53;44.93;98835.66;5038526;28;20043;-83
2023/03/11 05:48:39;;;;;;;1.80;0.97;;;;;;;12.68;44.58;98821.78;5032256;28;20036;-85
2023/03/11 05:51:35;;;;;;;3.75;1.67;;;;;;;12.62;44.52;98828.72;5031908;28;20521;-85
2023/03/11 05:54:30;;;;;;;2.37;1.13;;;;;;;12.54;45.12;98813.47;5033477;28;20112;-83
2023/03/11 05:57:24;;;;;;;6.03;1.60;;;;;;;12.46;45.59;98798.19;5031224;28;20048;-82
2023/03/11 06:00:17;;;;;;;5.13;1.40;;;;;;;12.46;45.27;98794.66;5028175;28;20038;-83
2023/03/11 06:03:12;;;;;;;;;;;;;;;12.31;45.67;98818.28;5028570;28;20056;-84
2023/03/11 06:06:08;;;;;;;3.15;1.00;;;;;;;12.35;45.98;98830.00;5038638;28;19912;-84
2023/03/11 06:09:03;;;;;;;5.32;1.52;;;;;;;12.50;45.83;98828.19;5033258;28;20036;-83
2023/03/11 06:11:58;;;;;;;2.92;1.40;;;;;;;12.37;46.37;98812.13;5035755;28;20044;-81
2023/03/11 06:14:55;;;;;;;8.77;1.45;;;;;;;12.46;46.48;98792.72;5041512;28;20055;-82
2023/03/11 06:17:50;;;;;;;2.50;1.30;;;;;;;12.38;45.79;98791.09;5045335;28;20044;-84
2023/03/11 06:20:44;;;;;;;1.57;0.90;;;;;;;12.34;46.44;98784.84;5037157;28;20414;-85
2023/03/11 06:23:39;;;;;;;3.43;1.43;;;;;;;12.26;46.99;98767.63;5044447;28;20048;-84
2023/03/11 06:26:34;;;;;;;9.77;1.40;;;;;;;12.25;47.21;98782.38;5038743;28;20369;-82
2023/03/11 06:29:29;;;;;;;3.30;1.10;;;;;;;12.25;47.20;98804.19;5048460;28;20125;-81
2023/03/11 06:32:23;;;;;;;15.63;2.30;;;;;;;12.16;47.52;98819.28;5051361;28;20040;-81
2023/03/11 06:35:17;;;;;;;2.70;1.50;;;;;;;12.33;46.84;98818.69;5048383;28;20060;-84
2023/03/11 06:38:12;;;;;;;4.80;1.23;;;;;;;12.36;46.95;98817.94;5058081;28;20048;-84
2023/03/11 06:43:50;;;;;;;5.65;1.60;;;;;;;12.38;46.93;98829.25;5113095;27;20384;-80
2023/03/11 06:46:45;;;;;;;4.68;2.70;;;;;;;12.53;47.07;98832.94;5104665;28;20097;-80
2023/03/11 06:49:40;;;;;;;3.35;1.30;;;;;;;12.38;47.23;98830.06;5096064;28;20423;-79
2023/03/11 06:52:35;;;;;;;1.95;1.00;;;;;;;12.54;47.11;98839.94;5088979;28;20422;-80
2023/03/11 06:55:30;;;;;;;3.20;1.63;;;;;;;12.55;47.04;98849.69;5087736;28;20530;-80
2023/03/11 06:58:25;;;;;;;3.17;1.40;;;;;;;12.70;46.96;98851.38;5089050;28;20051;-81
2023/03/11 07:01:27;;;;;;;4.17;1.73;;;;;;;12.67;48.05;98855.66;5094591;28;20648;-81
2023/03/11 07:04:21;;;;;;;5.05;1.77;;;;;;;12.70;47.84;98860.34;5100582;28;20040;-80
2023/03/11 07:07:15;;;;;;;7.30;2.33;;;;;;;12.68;47.80;98857.25;5094087;28;20411;-81
2023/03/11 07:10:11;;;;;;;9.10;1.90;;;;;;;12.78;48.29;98858.50;5089167;28;20048;-82
2023/03/11 07:13:06;;;;;;;7.50;2.20;;;;;;;12.79;47.69;98860.84;5091687;28;20040;-82
2023/03/11 07:16:12;;;;;;;6.13;2.43;;;;;;;12.89;47.55;98864.84;5087551;28;20064;-81
2023/03/11 07:19:07;;;;;;;8.95;3.10;;;;;;;12.97;47.58;98873.88;5093337;28;20040;-80
2023/03/11 07:22:01;;;;;;;12.05;4.90;;;;;;;12.99;47.33;98869.63;5085808;28;20063;-81
2023/03/11 07:24:53;;;;;;;16.95;4.15;;;;;;;12.97;47.29;98876.59;5087786;28;20043;-80
2023/03/11 07:27:48;;;;;;;9.15;2.83;;;;;;;12.94;47.72;98888.28;5084945;28;20051;-81
2023/03/11 07:30:43;;;;;;;6.43;2.33;;;;;;;13.11;47.22;98876.72;5094674;28;20600;-81
2023/03/11 07:33:38;;;;;;;26.85;3.45;;;;;;;13.25;46.62;98883.13;5093807;28;20518;-81
2023/03/11 07:36:30;;;;;;;8.97;2.33;;;;;;;13.35;46.75;98886.31;5095455;28;20518;-81
2023/03/11 07:39:24;;;;;;;6.50;2.83;;;;;;;13.43;46.83;98882.47;5084862;28;20529;-80
2023/03/11 07:42:19;;;;;;;7.10;3.28;;;;;;;13.38;47.96;98872.69;5086206;28;20065;-81
2023/03/11 07:45:12;;;;;;;8.80;3.10;;;;;;;13.47;48.70;98884.06;5084976;28;20060;-82
2023/03/11 07:48:07;;;;;;;6.80;2.97;;;;;;;13.59;48.65;98881.03;5089731;28;20044;-81
2023/03/11 07:51:10;;;;;;;9.18;4.28;;;;;;;13.59;48.33;98888.44;5085240;28;20046;-80
2023/03/11 07:54:05;;;;;;;11.07;3.92;;;;;;;13.74;48.61;98889.31;5071288;28;20044;-81
2023/03/11 07:57:00;;;;;;;8.57;3.87;;;;;;;13.63;50.05;98898.22;5069327;28;20042;-83
2023/03/11 07:59:54;;;;;;;9.05;3.28;;;;;;;13.48;49.96;98902.03;5064362;28;20043;-83
2023/03/11 08:02:49;;;;;;;17.10;4.37;;;;;;;13.49;50.05;98917.25;5067414;28;20039;-83
2023/03/11 08:05:43;;;;;;;11.07;4.20;;;;;;;12.99;51.64;98912.47;5068224;28;20055;-86
2023/03/11 08:08:38;;;;;;;16.50;3.93;;;;;;;13.78;50.23;98899.09;5078221;28;20043;-85
2023/03/11 08:11:33;;;;;;;11.60;5.72;;;;;;;14.02;49.29;98892.22;5066290;28;20043;-84
2023/03/11 08:14:28;;;;;;;8.35;3.78;;;;;;;13.82;49.49;98931.91;5089451;28;20400;-83
2023/03/11 08:17:22;;;;;;;7.70;4.25;;;;;;;13.79;49.82;98947.13;5066427;28;20044;-85
2023/03/11 08:20:17;;;;;;;15.63;5.40;;;;;;;14.27;48.98;98942.34;5075329;28;20134;-83
2023/03/11 08:23:12;;;;;;;12.00;4.93;;;;;;;14.41;48.39;98934.25;5066274;28;20298;-86
2023/03/11 08:26:11;;;;;;;12.57;4.23;;;;;;;14.46;48.31;98939.34;5070799;28;20077;-83
2023/03/11 08:29:09;;;;;;;17.63;4.88;;;;;;;14.99;46.34;98931.28;5060029;28;20048;-84
2023/03/11 08:32:03;;;;;;;129.05;15.02;;;;;;;15.12;46.22;98896.13;5071239;28;20039;-83
2023/03/11 08:34:58;;;;;;;19.35;4.75;;;;;;;15.08;46.26;98922.72;5074280;28;20542;-84
2023/03/11 08:37:53;;;;;;;11.32;4.90;;;;;;;14.97;46.00;98913.69;5077599;28;20047;-83
2023/03/11 08:40:47;;;;;;;18.80;4.70;;;;;;;15.20;45.60;98925.06;5081209;28;20052;-83
2023/03/11 08:43:40;;;;;;;7.75;4.72;;;;;;;15.27;45.22;98933.28;5078311;28;20043;-84
2023/03/11 08:46:35;;;;;;;9.80;4.20;;;;;;;15.32;45.42;98916.47;5081064;28;20048;-82
2023/03/11 08:49:29;;;;;;;9.68;4.07;;;;;;;15.07;45.86;98932.09;5076982;28;20051;-83
2023/03/11 08:52:21;;;;;;;11.25;4.63;;;;;;;14.94;45.77;98934.41;5078441;28;20318;-84
2023/03/11 08:55:17;;;;;;;11.70;4.72;;;;;;;14.68;46.73;98933.97;5074547;28;20043;-83
2023/03/11 08:58:12;;;;;;;12.38;5.25;;;;;;;14.70;46.61;98940.59;5069775;28;20044;-83
2023/03/11 09:01:08;;;;;;;9.35;5.03;;;;;;;14.70;46.58;98939.81;5075037;28;20044;-84
2023/03/11 09:04:03;;;;;;;7.63;5.00;;;;;;;14.69;46.50;98933.56;5070618;28;20048;-84
2023/03/11 09:06:55;;;;;;;9.40;4.68;;;;;;;14.22;47.72;98928.25;5070705;28;20044;-83
2023/03/11 09:09:49;;;;;;;10.30;5.27;;;;;;;14.45;47.84;98920.56;5073770;28;20044;-83
2023/03/11 09:12:41;;;;;;;13.07;5.10;;;;;;;14.57;47.59;98925.72;5070302;28;20053;-82
2023/03/11 09:15:33;;;;;;;15.75;7.15;;;;;;;14.22;48.67;98912.63;5065679;28;20052;-84
2023/03/11 09:18:28;;;;;;;8.83;5.27;;;;;;;14.61;48.70;98918.28;5078282;28;20066;-82
2023/03/11 09:21:22;;;;;;;11.00;5.32;;;;;;;14.46;49.37;98922.16;5071192;28;20051;-82
2023/03/11 09:24:17;;;;;;;17.30;7.00;;;;;;;14.85;48.64;98925.00;5076317;28;20043;-82
2023/03/11 09:27:09;;;;;;;10.90;5.35;;;;;;;14.94;49.56;98928.16;5074231;28;20048;-82
2023/03/11 09:30:02;;;;;;;13.00;7.88;;;;;;;15.01;49.43;98919.97;5071770;28;20056;-82
2023/03/11 09:32:51;;;;;;;9.70;5.90;;;;;;;14.97;50.44;98924.66;5069810;28;20040;-84
2023/03/11 09:35:46;;;;;;;15.20;8.05;;;;;;;15.25;49.78;98930.16;5074347;28;20675;-84
2023/03/11 09:38:38;;;;;;;10.05;4.47;;;;;;;15.89;48.72;98930.19;5081760;28;20411;-81
2023/03/11 09:41:37;;;;;;;15.40;6.13;;;;;;;16.19;47.37;98941.47;5068240;28;20052;-81
2023/03/11 09:44:42;;;;;;;14.70;7.32;;;;;;;16.61;46.69;98950.75;5065534;28;20507;-82
2023/03/11 09:47:41;;;;;;;13.95;7.43;;;;;;;16.48;46.30;98946.88;5070080;28;20048;-82
2023/03/11 09:50:39;;;;;;;14.52;6.45;;;;;;;16.49;46.49;98959.41;5065471;28;20412;-82
2023/03/11 09:53:39;;;;;;;21.40;8.23;;;;;;;16.62;46.29;98963.28;5064753;28;20047;-82
2023/03/11 09:56:35;;;;;;;17.90;9.07;;;;;;;16.47;46.60;98964.50;5068448;28;20048;-82
2023/03/11 09:59:35;;;;;;;41.13;10.77;;;;;;;16.54;47.06;98948.03;5076305;28;20072;-82
2023/03/11 10:02:29;;;;;;;23.58;9.98;;;;;;;16.52;47.04;98950.38;5069467;28;20047;-82
2023/03/11 10:05:28;;;;;;;24.20;10.98;;;;;;;17.06;45.60;98963.50;5066186;28;20075;-82
2023/03/11 10:08:44;;;;;;;25.88;9.85;;;;;;;17.14;46.33;98969.72;5061879;28;20408;-83
2023/03/11 10:11:48;;;;;;;12.73;6.03;;;;;;;17.47;45.28;98973.81;5079862;28;20047;-82
2023/03/11 10:15:04;;;;;;;20.98;10.25;;;;;;;17.27;45.69;98986.53;5074549;28;20043;-82
2023/03/11 10:18:19;;;;;;;23.95;11.20;;;;;;;17.50;46.04;98990.28;5056863;28;20056;-84
2023/03/11 10:21:20;;;;;;;23.98;10.90;;;;;;;17.68;45.97;98998.41;5072564;28;20055;-81
2023/03/11 10:24:28;;;;;;;27.02;10.60;;;;;;;18.03;44.43;99005.59;5084079;28;20047;-84
2023/03/11 10:27:26;;;;;;;19.20;8.88;;;;;;;18.37;43.17;99011.16;5082015;28;20055;-83
2023/03/11 10:30:28;;;;;;;20.90;10.57;;;;;;;18.06;43.59;99013.03;5072834;28;20039;-82
2023/03/11 10:33:34;;;;;;;17.77;11.35;;;;;;;18.27;42.67;99014.81;5059265;28;20538;-82
2023/03/11 10:36:30;;;;;;;17.20;9.45;;;;;;;19.05;40.99;99020.22;5077891;28;20063;-82
2023/03/11 10:39:26;;;;;;;20.20;11.23;;;;;;;19.29;40.13;99021.09;5077963;28;20518;-82
2023/03/11 10:42:21;;;;;;;18.25;10.18;;;;;;;18.82;41.08;99025.66;5075364;28;20123;-84
2023/03/11 10:45:11;;;;;;;;;;;;;;;18.58;40.37;99019.25;5082972;28;20067;-83
2023/03/11 10:48:09;;;;;;;25.63;9.10;;;;;;;18.73;40.29;99017.09;5083610;28;19912;-83
2023/03/11 10:51:12;;;;;;;19.65;11.35;;;;;;;18.49;40.95;99005.13;5091333;28;20047;-80
2023/03/11 10:54:08;;;;;;;17.98;9.73;;;;;;;18.75;40.15;98998.97;5075797;28;20039;-82
2023/03/11 10:57:06;;;;;;;17.98;9.23;;;;;;;18.68;40.37;99012.81;5063990;28;20511;-82
2023/03/11 11:00:03;;;;;;;16.73;9.75;;;;;;;18.73;41.27;99001.38;5073648;28;20043;-82
2023/03/11 11:03:00;;;;;;;15.77;9.52;;;;;;;19.40;39.61;98996.91;5069845;28;20035;-82
2023/03/11 11:06:19;;;;;;;17.60;8.60;;;;;;;19.48;39.79;98995.66;5070308;28;20067;-81
2023/03/11 11:09:22;;;;;;;17.48;10.00;;;;;;;19.71;39.10;99005.91;5065847;28;20048;-85
2023/03/11 11:12:17;;;;;;;14.65;8.75;;;;;;;19.60;39.66;99006.13;5066173;28;20131;-82
2023/03/11 11:15:29;;;;;;;18.35;10.07;;;;;;;20.77;37.29;99014.34;5082618;28;20044;-82
2023/03/11 11:18:31;;;;;;;16.83;9.18;;;;;;;21.84;35.48;99026.63;5070335;28;20048;-82
2023/03/11 11:21:48;;;;;;;16.67;8.13;;;;;;;23.43;32.10;99019.50;5070493;28;20059;-82
2023/03/11 11:24:47;;;;;;;15.90;8.13;;;;;;;22.22;33.43;99011.03;5070062;28;20048;-82
2023/03/11 11:27:52;;;;;;;16.48;9.43;;;;;;;24.50;31.01;99020.38;5069596;28;20048;-82
2023/03/11 11:31:03;;;;;;;14.25;8.55;;;;;;;33.60;18.92;99038.00;5073317;28;20048;-82
2023/03/11 11:33:57;;;;;;;19.63;9.82;;;;;;;35.89;16.19;99035.56;5070237;28;20032;-82
2023/03/11 11:36:51;;;;;;;16.52;8.27;;;;;;;37.33;14.55;99025.75;5070496;28;20048;-82
2023/03/11 11:39:57;;;;;;;17.08;7.45;;;;;;;39.74;12.59;99032.31;5078748;28;20051;-82
2023/03/11 11:43:06;;;;;;;15.52;7.47;;;;;;;40.51;11.75;99020.09;5071580;28;20047;-82
2023/03/11 11:46:15;;;;;;;14.63;7.57;;;;;;;40.70;11.66;99025.50;5071630;28;20510;-82
2023/03/11 11:49:27;;;;;;;12.82;6.93;;;;;;;41.80;10.78;99018.28;5075961;28;20051;-82
2023/03/11 11:52:25;;;;;;;22.92;7.20;;;;;;;43.24;9.60;99016.22;5076380;28;20035;-80
2023/03/11 11:55:30;;;;;;;14.82;6.68;;;;;;;43.11;9.51;99014.41;5075760;28;20048;-82
2023/03/11 11:58:26;;;;;;;10.15;6.63;;;;;;;43.35;9.13;99010.03;5076142;28;20509;-81
2023/03/11 12:01:25;;;;;;;14.43;7.55;;;;;;;43.37;9.40;99001.63;5072213;28;20047;-83
2023/03/11 12:04:23;;;;;;;12.95;6.47;;;;;;;43.10;8.84;99004.31;5073470;28;20044;-82
2023/03/11 12:07:22;;;;;;;15.82;6.97;;;;;;;41.50;10.54;99000.41;5072905;28;20661;-82
2023/03/11 12:10:26;;;;;;;27.92;8.77;;;;;;;38.93;11.96;98987.00;5073361;28;20055;-82
2023/03/11 12:13:35;;;;;;;13.25;7.13;;;;;;;31.90;18.10;98970.97;5079834;28;20044;-82
2023/03/11 12:16:55;;;;;;;9.20;6.85;;;;;;;28.09;21.63;98962.03;5072682;28;20044;-83
2023/03/11 12:19:55;;;;;;;12.82;7.82;;;;;;;25.85;24.68;98956.84;5084391;28;20052;-83
2023/03/11 12:23:11;;;;;;;11.88;7.10;;;;;;;24.24;27.17;98960.56;5075762;28;20510;-82
2023/03/11 12:26:27;;;;;;;11.63;6.80;;;;;;;23.56;27.96;98964.03;5077968;28;20051;-83
2023/03/11 12:29:38;;;;;;;14.60;8.35;;;;;;;22.77;29.66;98962.06;5081949;28;20059;-82
2023/03/11 12:32:42;;;;;;;17.75;8.23;;;;;;;22.58;30.30;98947.16;5078282;28;20040;-82
2023/03/11 12:35:36;;;;;;;16.33;7.97;;;;;;;22.18;30.98;98954.97;5075410;28;20044;-82
2023/03/11 12:38:31;;;;;;;21.20;7.70;;;;;;;22.18;31.07;98958.53;5077099;28;20047;-84
2023/03/11 12:41:40;;;;;;;10.02;6.47;;;;;;;21.84;30.53;98949.88;5081308;28;20039;-83
2023/03/11 12:44:34;;;;;;;12.15;7.50;;;;;;;21.84;30.57;98944.34;5081482;28;20040;-82
2023/03/11 12:47:28;;;;;;;14.40;7.15;;;;;;;21.76;31.12;98948.50;5079391;28;20067;-83
2023/03/11 12:50:42;;;;;;;10.50;6.63;;;;;;;21.66;31.27;98936.50;5086748;28;20052;-82
2023/03/11 12:53:52;;;;;;;14.18;6.93;;;;;;;21.49;32.32;98934.94;5077046;28;20060;-83
2023/03/11 12:56:47;;;;;;;11.55;6.78;;;;;;;21.42;32.83;98934.34;5076263;28;20056;-83
2023/03/11 13:00:21;;;;;;;15.95;7.80;;;;;;;21.54;32.64;98936.41;5075794;28;20043;-83
2023/03/11 13:03:45;;;;;;;16.33;7.93;;;;;;;21.40;32.51;98932.00;5040691;28;20035;-84
2023/03/11 13:06:47;;;;;;;11.63;6.70;;;;;;;21.39;32.17;98927.69;5090141;28;20056;-84
2023/03/11 13:09:41;;;;;;;12.25;6.90;;;;;;;21.32;31.97;98925.88;5079532;28;20063;-82
2023/03/11 13:12:57;;;;;;;16.95;7.35;;;;;;;21.33;32.81;98927.41;5076247;28;20043;-85
2023/03/11 13:15:51;;;;;;;14.98;6.90;;;;;;;21.27;33.13;98929.16;5068408;28;20048;-84
2023/03/11 13:19:23;;;;;;;14.90;7.45;;;;;;;21.26;33.09;98932.34;5073777;28;20438;-83
2023/03/11 13:23:05;;;;;;;14.60;6.75;;;;;;;21.24;33.41;98929.22;5071201;28;20123;-85
2023/03/11 13:26:00;;;;;;;15.15;7.13;;;;;;;21.16;33.37;98931.38;5082196;28;20051;-84
2023/03/11 13:29:17;;;;;;;13.90;6.30;;;;;;;20.99;32.94;98929.75;5091432;28;20055;-85
2023/03/11 13:32:27;;;;;;;15.82;6.75;;;;;;;21.25;32.49;98922.50;5073309;28;20039;-84
2023/03/11 13:35:55;;;;;;;10.55;6.63;;;;;;;21.17;31.97;98924.66;5088897;28;20048;-85
2023/03/11 13:39:03;;;;;;;15.75;6.90;;;;;;;21.23;32.54;98931.22;5068915;28;20063;-85
2023/03/11 13:41:55;;;;;;;19.27;6.22;;;;;;;21.23;32.89;98931.22;5067700;28;20039;-85
2023/03/11 13:44:52;;;;;;;11.80;5.82;;;;;;;21.43;32.50;98927.63;5078548;28;20522;-84
2023/03/11 13:47:48;;;;;;;12.70;7.55;;;;;;;21.26;32.03;98933.13;5077191;28;20126;-84
2023/03/11 13:50:46;;;;;;;10.57;6.30;;;;;;;21.30;32.08;98928.28;5073488;28;20063;-83
2023/03/11 13:53:42;;;;;;;13.43;6.50;;;;;;;21.34;32.09;98928.97;5089762;28;20048;-84
2023/03/11 13:56:42;;;;;;;15.32;7.72;;;;;;;21.31;32.45;98924.31;5077718;28;20055;-84